Time;durP1;ratioP1;P1;durP2;ratioP2;P2;SDS_P1;SDS_P2;PMS_P1;PMS_P2;Temp;Humidity;BMP_temperature;BMP_pressure;BME280_temperature;BME280_humidity;BME280_pressure;Samples;Min_cycle;Max_cycle;Signal;HPM_P1;HPM_P2
2023/01/20 00:00:49;;;;;;;59.67;36.80;;;4.00;1.00;;;;;;4951197;28;20055;-76
2023/01/20 00:03:17;;;;;;;53.13;32.78;;;4.00;1.00;;;;;;4952181;29;20050;-77
2023/01/20 00:05:51;;;;;;;77.57;46.53;;;3.90;99.90;;;;;;4952189;29;20058;-75
2023/01/20 00:08:19;;;;;;;70.00;42.40;;;3.90;1.00;;;;;;4951304;29;20102;-75
2023/01/20 00:10:46;;;;;;;59.70;38.58;;;3.80;99.90;;;;;;4950415;29;20034;-77
2023/01/20 00:13:15;;;;;;;60.38;36.63;;;3.80;19.80;;;;;;4950013;29;20130;-77
2023/01/20 00:15:43;;;;;;;62.70;38.83;;;3.60;99.40;;;;;;4951045;29;20078;-75
2023/01/20 00:18:10;;;;;;;65.38;41.35;;;3.60;1.00;;;;;;4951583;29;20043;-77
2023/01/20 00:20:38;;;;;;;73.47;46.30;;;3.60;1.00;;;;;;4949782;29;20471;-75
2023/01/20 00:23:05;;;;;;;77.47;46.75;;;3.60;99.90;;;;;;4952615;29;20138;-75
2023/01/20 00:25:35;;;;;;;73.63;45.92;;;3.60;99.90;;;;;;4953275;29;20043;-77
2023/01/20 00:28:04;;;;;;;78.78;45.97;;;3.60;99.90;;;;;;4952663;29;20057;-75
2023/01/20 00:30:33;;;;;;;64.85;42.60;;;3.60;99.90;;;;;;4965647;28;20074;-75
2023/01/20 00:33:00;;;;;;;69.00;42.15;;;3.50;99.90;;;;;;4951158;29;20130;-75
2023/01/20 00:35:27;;;;;;;66.63;42.90;;;3.40;99.90;;;;;;4951635;28;20039;-77
2023/01/20 00:37:55;;;;;;;71.13;46.00;;;3.40;99.90;;;;;;4951895;29;20054;-74
2023/01/20 00:40:22;;;;;;;80.43;47.92;;;3.40;99.90;;;;;;4951189;29;20043;-75
2023/01/20 00:42:50;;;;;;;84.32;52.88;;;3.40;99.90;;;;;;4951636;29;20480;-76
2023/01/20 00:45:17;;;;;;;82.25;52.05;;;3.40;99.90;;;;;;4952185;29;20118;-77
2023/01/20 00:47:46;;;;;;;82.80;51.80;;;3.40;99.90;;;;;;4950753;29;20078;-77
2023/01/20 00:50:13;;;;;;;96.05;58.03;;;3.40;99.90;;;;;;4951283;29;20039;-75
2023/01/20 00:52:41;;;;;;;114.25;65.28;;;3.30;99.90;;;;;;4951129;29;20614;-75
2023/01/20 00:55:09;;;;;;;98.03;60.47;;;3.20;99.90;;;;;;4951460;28;20048;-78
2023/01/20 00:57:36;;;;;;;98.65;59.83;;;3.20;99.90;;;;;;4954231;29;20592;-77
2023/01/20 01:00:05;;;;;;;94.25;61.42;;;3.10;99.90;;;;;;4954365;29;20086;-77
2023/01/20 01:02:37;;;;;;;67.43;47.30;;;3.00;99.90;;;;;;4955057;29;20039;-75
2023/01/20 01:05:06;;;;;;;87.30;57.75;;;2.90;99.90;;;;;;4953969;29;20043;-76
2023/01/20 01:07:34;;;;;;;137.85;83.07;;;2.90;99.90;;;;;;4953598;29;20533;-77
2023/01/20 01:10:01;;;;;;;153.07;87.15;;;2.90;99.90;;;;;;4954440;29;20047;-75
2023/01/20 01:12:29;;;;;;;116.90;69.45;;;2.80;99.90;;;;;;4954749;29;20123;-76
2023/01/20 01:14:56;;;;;;;116.70;73.05;;;2.80;99.90;;;;;;4955003;29;20035;-76
2023/01/20 01:17:23;;;;;;;116.07;70.07;;;2.70;99.90;;;;;;4961613;29;20062;-76
2023/01/20 01:19:52;;;;;;;97.57;60.10;;;2.70;99.90;;;;;;4959205;29;20055;-75
2023/01/20 01:22:22;;;;;;;80.40;52.97;;;2.70;99.90;;;;;;4955623;29;20046;-75
2023/01/20 01:24:49;;;;;;;67.85;45.53;;;2.70;99.90;;;;;;4954530;29;20050;-76
2023/01/20 01:27:17;;;;;;;59.42;42.70;;;2.80;99.90;;;;;;4954919;29;20492;-77
2023/01/20 01:29:44;;;;;;;72.80;50.97;;;2.80;99.90;;;;;;4954335;29;20055;-75
2023/01/20 01:32:12;;;;;;;67.35;45.67;;;2.90;99.90;;;;;;4954796;29;20492;-76
2023/01/20 01:34:39;;;;;;;77.03;51.97;;;2.90;99.90;;;;;;4954877;28;20073;-77
2023/01/20 01:37:07;;;;;;;85.68;57.35;;;2.90;99.90;;;;;;4953315;29;20071;-76
2023/01/20 01:39:36;;;;;;;92.68;61.03;;;3.00;99.90;;;;;;4953367;29;20047;-76
2023/01/20 01:42:03;;;;;;;88.82;59.45;;;3.00;99.90;;;;;;4953067;29;20138;-77
2023/01/20 01:44:32;;;;;;;79.80;53.55;;;2.90;99.90;;;;;;4952958;29;20075;-76
2023/01/20 01:46:59;;;;;;;77.20;52.00;;;2.80;99.90;;;;;;4954927;29;20122;-75
2023/01/20 01:49:31;;;;;;;80.00;55.55;;;2.80;99.90;;;;;;4954878;29;20043;-75
2023/01/20 01:52:01;;;;;;;77.00;51.50;;;2.80;99.90;;;;;;4972211;28;20055;-76
2023/01/20 01:54:33;;;;;;;76.63;52.38;;;2.70;99.90;;;;;;4954489;29;20049;-77
2023/01/20 01:57:02;;;;;;;82.40;57.63;;;2.70;99.90;;;;;;4953315;29;20051;-78
2023/01/20 01:59:30;;;;;;;81.90;56.08;;;2.70;99.90;;;;;;4954136;29;20043;-75
2023/01/20 02:01:58;;;;;;;82.85;56.95;;;2.70;99.90;;;;;;4959613;29;20043;-76
2023/01/20 02:04:27;;;;;;;85.20;56.50;;;2.70;99.90;;;;;;4963375;28;20043;-76
2023/01/20 02:06:59;;;;;;;96.13;60.13;;;2.70;99.90;;;;;;4953404;28;20081;-77
2023/01/20 02:09:28;;;;;;;94.28;58.25;;;2.80;99.90;;;;;;4953539;29;20143;-78
2023/01/20 02:12:00;;;;;;;90.22;54.10;;;2.80;99.90;;;;;;4953089;29;20047;-77
2023/01/20 02:14:33;;;;;;;99.55;57.17;;;2.80;99.90;;;;;;4952362;29;20071;-78
2023/01/20 02:17:11;;;;;;;107.65;61.28;;;2.90;99.90;;;;;;4951496;29;20062;-75
2023/01/20 02:20:02;;;;;;;106.32;65.72;;;2.80;99.90;;;;;;4952735;29;20134;-75
2023/01/20 02:22:36;;;;;;;105.68;59.28;;;2.70;99.90;;;;;;4952580;29;20050;-77
2023/01/20 02:25:41;;;;;;;104.57;59.47;;;2.60;99.90;;;;;;4952391;29;20040;-77
2023/01/20 02:28:47;;;;;;;108.85;63.83;;;2.70;99.90;;;;;;4952446;29;20039;-77
2023/01/20 02:31:59;;;;;;;94.50;57.88;;;2.70;99.90;;;;;;4947423;29;20059;-76
2023/01/20 02:34:32;;;;;;;103.25;60.40;;;2.70;99.90;;;;;;4952770;29;20518;-77
2023/01/20 02:37:05;;;;;;;101.63;60.50;;;2.70;99.90;;;;;;4952348;29;20094;-74
2023/01/20 02:39:42;;;;;;;104.00;61.53;;;2.80;99.90;;;;;;4952076;29;20403;-76
2023/01/20 02:42:11;;;;;;;107.15;63.38;;;2.80;99.90;;;;;;4952355;29;20415;-77
2023/01/20 02:44:43;;;;;;;112.55;63.65;;;2.80;99.90;;;;;;4952939;29;20043;-74
2023/01/20 02:47:17;;;;;;;111.40;65.70;;;2.80;99.90;;;;;;4952559;29;20047;-76
2023/01/20 02:49:53;;;;;;;114.60;66.10;;;2.80;99.90;;;;;;4951637;29;20069;-78
2023/01/20 02:52:25;;;;;;;103.82;60.97;;;2.80;99.90;;;;;;4952643;29;20636;-75
2023/01/20 02:54:56;;;;;;;96.95;57.83;;;2.70;99.90;;;;;;4952180;29;20047;-75
2023/01/20 02:57:29;;;;;;;99.68;57.53;;;2.70;99.90;;;;;;4951799;29;20086;-77
2023/01/20 03:00:04;;;;;;;92.38;56.20;;;2.70;99.90;;;;;;4951970;29;20073;-76
2023/01/20 03:02:36;;;;;;;85.03;50.88;;;2.70;99.90;;;;;;4952384;29;20049;-76
2023/01/20 03:05:07;;;;;;;82.63;51.42;;;2.80;99.90;;;;;;4952245;29;20470;-76
2023/01/20 03:07:37;;;;;;;70.40;42.58;;;2.80;99.90;;;;;;4953522;29;20098;-77
2023/01/20 03:10:08;;;;;;;70.15;41.67;;;2.80;99.90;;;;;;4954129;29;20937;-76
2023/01/20 03:12:40;;;;;;;69.13;41.38;;;2.80;99.90;;;;;;4963972;29;20043;-78
2023/01/20 03:15:09;;;;;;;67.95;38.72;;;2.80;99.90;;;;;;4963338;29;20126;-75
2023/01/20 03:17:37;;;;;;;58.88;37.33;;;2.80;99.90;;;;;;4963317;29;20047;-76
2023/01/20 03:20:07;;;;;;;60.53;37.08;;;2.80;99.90;;;;;;4959133;28;20106;-76
2023/01/20 03:22:34;;;;;;;61.33;36.97;;;2.80;99.90;;;;;;4957022;29;20094;-76
2023/01/20 03:25:03;;;;;;;55.97;35.50;;;2.80;99.90;;;;;;4951680;29;20046;-75
2023/01/20 03:27:31;;;;;;;59.17;36.97;;;2.80;99.90;;;;;;4951413;29;20039;-77
2023/01/20 03:29:58;;;;;;;60.00;37.05;;;2.80;99.90;;;;;;4951103;28;20130;-77
2023/01/20 03:32:27;;;;;;;58.60;38.05;;;2.70;99.90;;;;;;4951303;29;20035;-75
2023/01/20 03:34:56;;;;;;;61.47;38.92;;;2.80;99.90;;;;;;4951117;29;20039;-76
2023/01/20 03:37:25;;;;;;;64.00;40.50;;;2.70;99.90;;;;;;4951868;29;20039;-76
2023/01/20 03:39:52;;;;;;;60.17;38.47;;;2.70;99.90;;;;;;4951233;29;20051;-75
2023/01/20 03:42:29;;;;;;;59.88;39.50;;;2.70;99.90;;;;;;4952122;29;20047;-78
2023/01/20 03:45:04;;;;;;;60.33;41.22;;;2.70;99.90;;;;;;4951811;29;20047;-75
2023/01/20 03:47:55;;;;;;;54.37;38.30;;;2.70;99.90;;;;;;4951980;29;20043;-75
2023/01/20 03:50:33;;;;;;;61.35;41.92;;;2.80;99.90;;;;;;4951241;29;20047;-79
2023/01/20 03:53:11;;;;;;;59.63;39.75;;;2.80;99.90;;;;;;4951804;29;20043;-76
2023/01/20 03:55:43;;;;;;;53.25;36.30;;;2.80;99.90;;;;;;4959314;29;20039;-76
2023/01/20 03:58:15;;;;;;;57.10;37.63;;;2.70;99.90;;;;;;4953500;29;20133;-77
2023/01/20 04:00:46;;;;;;;57.95;39.95;;;2.70;99.90;;;;;;4951180;29;20078;-76
2023/01/20 04:03:18;;;;;;;59.60;39.80;;;2.70;99.90;;;;;;4953433;29;20058;-77
2023/01/20 04:05:47;;;;;;;58.67;39.83;;;2.70;99.90;;;;;;4952515;29;20074;-78
2023/01/20 04:08:20;;;;;;;61.15;40.60;;;2.70;99.90;;;;;;4951148;29;20764;-75
2023/01/20 04:10:49;;;;;;;62.67;42.75;;;2.70;99.90;;;;;;4950305;29;20067;-75
2023/01/20 04:13:17;;;;;;;67.00;44.97;;;2.70;99.90;;;;;;4965749;28;20570;-77
2023/01/20 04:15:46;;;;;;;81.72;54.83;;;2.70;99.90;;;;;;4950838;29;20043;-74
2023/01/20 04:18:15;;;;;;;81.50;52.40;;;2.60;99.90;;;;;;4951034;28;20111;-76
2023/01/20 04:20:44;;;;;;;76.75;50.92;;;2.60;99.90;;;;;;4949225;29;20500;-76
2023/01/20 04:23:24;;;;;;;74.57;49.15;;;2.60;99.90;;;;;;4950767;29;20067;-76
2023/01/20 04:25:51;;;;;;;72.07;46.90;;;2.60;99.90;;;;;;4950193;29;20044;-76
2023/01/20 04:28:18;;;;;;;71.97;47.15;;;2.70;99.90;;;;;;4951121;29;20043;-77
2023/01/20 04:30:46;;;;;;;66.38;44.58;;;2.70;99.90;;;;;;4950931;28;20065;-77
2023/01/20 04:33:13;;;;;;;63.03;41.70;;;2.70;99.90;;;;;;4955708;29;20039;-78
2023/01/20 04:35:41;;;;;;;56.05;38.20;;;2.70;99.90;;;;;;4955501;29;20497;-75
2023/01/20 04:38:08;;;;;;;56.78;36.63;;;2.70;99.90;;;;;;4955308;29;20053;-76
2023/01/20 04:40:37;;;;;;;59.13;34.65;;;2.70;99.90;;;;;;4954233;29;20054;-75
2023/01/20 04:43:05;;;;;;;53.70;32.65;;;2.70;99.90;;;;;;4954896;28;20075;-77
2023/01/20 04:45:32;;;;;;;48.90;31.08;;;2.60;99.90;;;;;;4953605;29;20047;-78
2023/01/20 04:48:00;;;;;;;57.08;32.25;;;2.50;99.90;;;;;;4954625;29;20054;-78
2023/01/20 04:50:27;;;;;;;54.78;31.58;;;2.50;99.90;;;;;;4954409;29;20040;-75
2023/01/20 04:52:55;;;;;;;56.92;33.30;;;2.50;99.90;;;;;;4954374;29;20133;-76
2023/01/20 04:55:23;;;;;;;58.40;33.95;;;2.50;99.90;;;;;;4953845;29;20043;-76
2023/01/20 04:57:52;;;;;;;52.83;33.22;;;2.50;99.90;;;;;;4954209;29;20031;-74
2023/01/20 05:00:20;;;;;;;57.03;34.75;;;2.50;99.90;;;;;;4954033;29;20055;-75
2023/01/20 05:02:47;;;;;;;59.97;35.35;;;2.50;99.90;;;;;;4953705;29;20505;-76
2023/01/20 05:05:15;;;;;;;54.63;33.55;;;2.50;99.90;;;;;;4954193;29;20051;-76
2023/01/20 05:07:43;;;;;;;57.20;34.30;;;2.50;99.90;;;;;;4953654;28;20039;-78
2023/01/20 05:10:11;;;;;;;55.35;32.42;;;2.50;99.90;;;;;;4953359;29;20035;-77
2023/01/20 05:12:40;;;;;;;47.60;29.70;;;2.50;99.90;;;;;;4954017;28;20039;-77
2023/01/20 05:15:10;;;;;;;48.28;30.35;;;2.50;99.90;;;;;;4953703;29;20070;-74
2023/01/20 05:17:37;;;;;;;48.92;29.02;;;2.40;99.90;;;;;;4953812;28;20519;-78
2023/01/20 05:20:05;;;;;;;49.47;30.08;;;2.40;99.90;;;;;;4952875;29;20132;-78
2023/01/20 05:22:33;;;;;;;44.30;28.58;;;2.40;99.90;;;;;;4953492;29;20043;-74
2023/01/20 05:25:00;;;;;;;45.45;27.92;;;2.40;99.90;;;;;;4953631;29;20106;-77
2023/01/20 05:27:27;;;;;;;46.05;31.10;;;2.40;99.90;;;;;;4953985;29;20051;-75
2023/01/20 05:29:55;;;;;;;56.58;37.28;;;2.40;99.90;;;;;;4952943;29;20059;-78
2023/01/20 05:32:24;;;;;;;45.05;31.65;;;2.40;99.90;;;;;;4953507;29;20039;-75
2023/01/20 05:34:51;;;;;;;45.53;33.70;;;2.40;99.90;;;;;;4953613;29;20052;-77
2023/01/20 05:37:19;;;;;;;49.33;37.35;;;2.40;99.90;;;;;;4952696;29;20077;-78
2023/01/20 05:39:46;;;;;;;47.00;34.40;;;2.40;99.90;;;;;;4952635;29;20053;-75
2023/01/20 05:42:14;;;;;;;41.65;31.08;;;2.40;99.90;;;;;;4952893;28;20483;-78
2023/01/20 05:44:42;;;;;;;40.75;30.77;;;2.40;99.90;;;;;;4953480;29;20047;-76
2023/01/20 05:47:09;;;;;;;41.10;29.42;;;2.40;99.90;;;;;;4951827;28;20142;-78
2023/01/20 05:49:39;;;;;;;42.38;30.73;;;2.40;99.90;;;;;;4953102;29;20043;-75
2023/01/20 05:52:06;;;;;;;37.50;29.33;;;2.40;99.90;;;;;;4951362;29;20134;-77
2023/01/20 05:54:33;;;;;;;36.63;27.33;;;2.50;99.90;;;;;;4952998;29;20038;-76
2023/01/20 05:57:03;;;;;;;34.78;26.30;;;2.50;99.90;;;;;;4953118;29;20051;-76
2023/01/20 05:59:30;;;;;;;33.38;26.08;;;2.50;99.90;;;;;;4954697;28;20046;-76
2023/01/20 06:01:58;;;;;;;33.40;25.65;;;2.50;99.90;;;;;;4953250;29;20051;-74
2023/01/20 06:04:25;;;;;;;34.05;26.15;;;2.50;99.90;;;;;;4953260;29;20077;-78
2023/01/20 06:06:54;;;;;;;34.70;25.52;;;2.50;99.90;;;;;;4953331;29;20043;-77
2023/01/20 06:09:22;;;;;;;33.47;26.52;;;2.40;99.90;;;;;;4953627;28;20051;-78
2023/01/20 06:11:50;;;;;;;38.58;26.98;;;2.40;99.90;;;;;;4957062;29;20055;-77
2023/01/20 06:14:18;;;;;;;36.97;28.40;;;2.40;99.90;;;;;;4959401;29;20055;-76
2023/01/20 06:16:45;;;;;;;41.08;29.38;;;2.40;99.90;;;;;;4955667;29;20515;-75
2023/01/20 06:19:13;;;;;;;40.70;30.42;;;2.40;99.90;;;;;;4955734;29;20071;-76
2023/01/20 06:21:41;;;;;;;38.40;28.25;;;2.30;99.90;;;;;;4952776;29;20506;-77
2023/01/20 06:24:10;;;;;;;40.40;30.42;;;2.30;99.90;;;;;;4952279;29;20098;-75
2023/01/20 06:26:37;;;;;;;40.72;29.50;;;2.30;99.90;;;;;;4951918;29;20045;-77
2023/01/20 06:29:05;;;;;;;40.03;30.30;;;2.20;99.90;;;;;;4954214;29;20107;-77
2023/01/20 06:31:32;;;;;;;40.45;28.38;;;2.20;99.90;;;;;;4953180;28;20062;-75
2023/01/20 06:33:59;;;;;;;36.88;28.30;;;2.20;99.90;;;;;;4954481;29;20047;-77
2023/01/20 06:36:27;;;;;;;40.92;28.75;;;2.20;99.90;;;;;;4960410;29;20050;-76
2023/01/20 06:38:54;;;;;;;39.70;29.23;;;2.20;99.90;;;;;;4958182;28;20040;-78
2023/01/20 06:41:23;;;;;;;38.53;29.30;;;2.30;99.90;;;;;;4951552;29;20043;-77
2023/01/20 06:43:51;;;;;;;44.92;31.92;;;2.30;99.90;;;;;;4952314;29;20054;-75
2023/01/20 06:46:19;;;;;;;44.85;32.45;;;2.30;99.90;;;;;;4950884;28;20078;-76
2023/01/20 06:48:47;;;;;;;46.10;32.78;;;2.30;99.90;;;;;;4952819;29;20047;-75
2023/01/20 06:51:16;;;;;;;42.03;29.05;;;2.30;99.90;;;;;;4950732;29;20467;-76
2023/01/20 06:53:44;;;;;;;39.88;26.40;;;2.30;99.90;;;;;;4951277;28;20408;-77
2023/01/20 06:56:13;;;;;;;45.08;30.27;;;2.30;99.90;;;;;;4951756;29;20050;-77
2023/01/20 06:58:43;;;;;;;40.42;26.70;;;2.30;99.90;;;;;;4966421;28;20070;-75
2023/01/20 07:01:13;;;;;;;40.55;25.95;;;2.20;99.90;;;;;;4951293;29;20070;-76
2023/01/20 07:03:43;;;;;;;41.70;27.52;;;2.20;99.90;;;;;;4950058;28;20122;-75
2023/01/20 07:06:16;;;;;;;39.80;26.70;;;2.20;99.90;;;;;;4950900;28;20488;-73
2023/01/20 07:08:45;;;;;;;43.13;27.88;;;2.20;99.90;;;;;;4953118;28;20047;-74
2023/01/20 07:11:12;;;;;;;47.10;31.02;;;2.20;99.90;;;;;;4953677;29;20053;-74
2023/01/20 07:13:40;;;;;;;45.40;29.73;;;2.20;99.90;;;;;;4954446;29;20284;-74
2023/01/20 07:16:09;;;;;;;51.13;30.95;;;2.30;99.90;;;;;;4951983;28;20031;-74
2023/01/20 07:18:37;;;;;;;46.65;31.33;;;2.30;99.90;;;;;;4951608;28;20050;-74
2023/01/20 07:21:05;;;;;;;47.83;30.33;;;2.30;99.90;;;;;;4950335;29;20047;-74
2023/01/20 07:23:33;;;;;;;47.40;30.50;;;2.40;99.90;;;;;;4950170;29;20051;-75
2023/01/20 07:26:01;;;;;;;47.42;29.23;;;2.40;99.90;;;;;;4949751;29;20039;-74
2023/01/20 07:28:30;;;;;;;49.30;30.13;;;2.50;99.90;;;;;;4949046;28;20574;-74
2023/01/20 07:31:03;;;;;;;43.97;28.85;;;2.50;99.90;;;;;;4950875;29;20459;-74
2023/01/20 07:33:32;;;;;;;46.38;30.33;;;2.40;99.90;;;;;;4951549;29;20039;-74
2023/01/20 07:36:00;;;;;;;49.28;29.85;;;2.50;99.90;;;;;;4951677;28;20127;-73
2023/01/20 07:38:28;;;;;;;50.85;32.65;;;2.60;99.90;;;;;;4950607;29;20256;-72
2023/01/20 07:40:58;;;;;;;48.53;33.60;;;2.60;99.90;;;;;;4949686;28;20047;-73
2023/01/20 07:43:26;;;;;;;52.00;33.50;;;2.60;99.90;;;;;;4950927;28;20055;-74
2023/01/20 07:45:55;;;;;;;62.00;39.80;;;2.70;99.90;;;;;;4950369;28;20356;-73
2023/01/20 07:48:23;;;;;;;52.50;34.65;;;2.70;99.90;;;;;;4951460;29;20125;-74
2023/01/20 07:51:01;;;;;;;60.13;36.42;;;2.70;99.90;;;;;;4950910;28;20341;-73
2023/01/20 07:53:29;;;;;;;61.65;39.20;;;2.70;99.90;;;;;;4951508;29;20047;-74
2023/01/20 07:55:56;;;;;;;63.13;39.05;;;2.70;99.90;;;;;;4951001;29;20107;-74
2023/01/20 07:58:24;;;;;;;62.00;40.30;;;2.70;99.90;;;;;;4954092;29;20050;-74
2023/01/20 08:00:51;;;;;;;81.20;48.45;;;2.70;99.90;;;;;;4961618;29;20046;-74
2023/01/20 08:03:19;;;;;;;93.95;57.20;;;2.80;99.90;;;;;;4960325;28;20035;-76
2023/01/20 08:05:47;;;;;;;92.78;56.92;;;2.80;99.90;;;;;;4951886;28;20115;-74
2023/01/20 08:08:16;;;;;;;80.75;51.92;;;2.80;99.90;;;;;;4950539;29;20656;-73
2023/01/20 08:10:43;;;;;;;86.43;52.70;;;2.90;99.90;;;;;;4950763;29;20043;-74
2023/01/20 08:13:11;;;;;;;84.88;50.97;;;2.90;99.90;;;;;;4951188;28;20079;-75
2023/01/20 08:15:38;;;;;;;80.57;50.03;;;2.90;99.90;;;;;;4951725;29;20047;-76
2023/01/20 08:18:06;;;;;;;79.22;50.13;;;3.00;99.90;;;;;;4952184;29;20059;-74
2023/01/20 08:20:33;;;;;;;79.00;50.03;;;3.00;99.90;;;;;;4951676;29;20074;-76
2023/01/20 08:23:01;;;;;;;75.82;49.60;;;3.10;99.90;;;;;;4955454;28;20107;-75
2023/01/20 08:25:29;;;;;;;80.45;50.97;;;3.10;99.90;;;;;;4957048;28;20082;-77
2023/01/20 08:27:57;;;;;;;68.78;44.70;;;3.20;99.90;;;;;;4950860;29;20043;-76
2023/01/20 08:30:27;;;;;;;68.68;45.17;;;3.20;99.90;;;;;;4974001;23;20138;-79
2023/01/20 08:32:55;;;;;;;75.90;47.17;;;3.30;99.90;;;;;;4973622;28;20387;-77
2023/01/20 08:35:23;;;;;;;72.32;47.42;;;3.30;99.90;;;;;;4956318;28;20463;-78
2023/01/20 08:37:51;;;;;;;67.85;46.17;;;3.30;99.90;;;;;;4954998;28;20517;-77
2023/01/20 08:40:18;;;;;;;69.47;45.03;;;3.40;99.90;;;;;;4971964;28;20295;-80
2023/01/20 08:42:48;;;;;;;65.63;41.78;;;3.40;99.90;;;;;;4962668;28;20047;-76
2023/01/20 08:45:16;;;;;;;56.30;38.45;;;3.40;99.90;;;;;;4974598;28;20039;-80
2023/01/20 08:47:44;;;;;;;73.93;44.72;;;3.40;99.90;;;;;;4985112;28;20062;-79
2023/01/20 08:50:15;;;;;;;57.78;39.92;;;3.50;99.90;;;;;;4977477;28;20031;-80
2023/01/20 08:52:45;;;;;;;53.90;35.90;;;3.50;99.90;;;;;;4970075;28;20050;-83
2023/01/20 08:55:13;;;;;;;58.78;40.47;;;3.40;99.90;;;;;;4975778;28;20043;-83
2023/01/20 08:57:42;;;;;;;64.63;42.33;;;3.40;99.90;;;;;;4976795;28;20051;-79
2023/01/20 09:00:14;;;;;;;62.08;41.55;;;3.50;99.90;;;;;;4974660;28;20150;-75
2023/01/20 09:02:42;;;;;;;62.88;44.38;;;3.60;99.90;;;;;;4972216;28;20392;-79
2023/01/20 09:05:10;;;;;;;63.55;43.45;;;3.70;99.90;;;;;;4974733;28;20039;-77
2023/01/20 09:07:37;;;;;;;61.05;41.17;;;3.70;99.90;;;;;;4988080;28;20496;-79
2023/01/20 09:10:06;;;;;;;59.85;38.47;;;3.80;99.90;;;;;;4977972;28;20078;-81
2023/01/20 09:12:36;;;;;;;49.15;33.47;;;3.80;99.90;;;;;;4978206;28;20030;-80
2023/01/20 09:15:06;;;;;;;52.22;35.05;;;3.80;99.90;;;;;;4973016;28;20035;-82
2023/01/20 09:17:36;;;;;;;51.33;34.40;;;3.80;99.90;;;;;;4997523;28;20042;-81
2023/01/20 09:20:06;;;;;;;42.20;29.80;;;3.80;99.90;;;;;;4981704;28;20043;-80
2023/01/20 09:22:34;;;;;;;54.38;34.30;;;3.80;99.90;;;;;;4981527;28;20035;-80
2023/01/20 09:25:02;;;;;;;42.30;30.02;;;3.70;99.90;;;;;;4980966;28;20042;-80
2023/01/20 09:27:30;;;;;;;39.35;28.30;;;3.70;99.90;;;;;;4978747;28;20062;-81
2023/01/20 09:29:59;;;;;;;45.70;30.75;;;3.70;99.90;;;;;;4996302;28;20070;-81
2023/01/20 09:32:29;;;;;;;43.95;29.52;;;3.70;99.90;;;;;;4983273;28;20114;-82
2023/01/20 09:34:58;;;;;;;45.42;30.40;;;3.60;99.90;;;;;;4997350;28;20078;-81
2023/01/20 09:47:18;;;;;;;39.70;29.63;;;3.90;99.90;;;;;;4979778;28;20042;-81
2023/01/20 09:55:25;;;;;;;36.22;26.88;;;4.20;1.00;;;;;;4978059;28;20145;-80
2023/01/20 09:57:58;;;;;;;44.38;29.45;;;4.40;1.00;;;;;;4958947;28;20067;-81
2023/01/20 10:00:30;;;;;;;33.97;25.20;;;4.50;99.90;;;;;;4974416;28;20054;-82
2023/01/20 10:03:05;;;;;;;36.20;24.75;;;4.60;99.90;;;;;;4959038;28;20046;-80
2023/01/20 10:05:37;;;;;;;31.10;21.90;;;4.60;1.00;;;;;;4958481;28;20071;-80
2023/01/20 10:08:12;;;;;;;41.33;26.92;;;4.60;99.90;;;;;;4974389;28;20051;-81
2023/01/20 10:10:48;;;;;;;35.83;24.73;;;4.70;1.00;;;;;;4959266;28;20066;-81
2023/01/20 10:13:46;;;;;;;34.72;24.52;;;4.70;99.90;;;;;;4962247;28;20994;-81
2023/01/20 10:16:25;;;;;;;39.85;26.35;;;4.60;1.00;;;;;;4980530;28;20053;-82
2023/01/20 10:18:57;;;;;;;32.55;23.65;;;4.60;1.00;;;;;;4964797;28;20102;-83
2023/01/20 10:21:32;;;;;;;38.30;23.17;;;4.80;1.00;;;;;;4966250;28;20057;-80
2023/01/20 10:24:23;;;;;;;32.75;21.88;;;5.00;99.90;;;;;;4964961;28;20054;-81
2023/01/20 10:27:17;;;;;;;28.35;19.17;;;5.10;99.90;;;;;;4958134;28;20117;-77
2023/01/20 10:29:50;;;;;;;;;;;5.30;99.90;;;;;;4964428;28;20057;-80
2023/01/20 10:32:31;;;;;;;27.63;19.35;;;5.60;95.40;;;;;;4983339;28;19926;-81
2023/01/20 10:35:14;;;;;;;29.02;20.25;;;5.70;1.00;;;;;;4979231;28;20119;-82
2023/01/20 10:37:47;;;;;;;30.95;19.58;;;5.80;1.00;;;;;;4975536;28;20042;-82
2023/01/20 10:40:24;;;;;;;26.88;19.08;;;5.70;1.00;;;;;;4975185;28;20458;-81
2023/01/20 10:42:56;;;;;;;35.05;21.35;;;5.70;99.90;;;;;;4973822;28;20070;-81
2023/01/20 10:45:36;;;;;;;30.42;20.73;;;5.60;99.90;;;;;;4975380;28;20035;-83
2023/01/20 10:48:12;;;;;;;39.05;25.10;;;5.70;99.90;;;;;;4981288;28;20054;-82
2023/01/20 10:50:49;;;;;;;35.55;23.23;;;5.90;99.90;;;;;;4984171;28;20090;-83
2023/01/20 10:53:51;;;;;;;34.33;21.88;;;6.10;99.90;;;;;;4956937;28;20133;-80
2023/01/20 10:56:42;;;;;;;28.23;18.25;;;6.00;44.40;;;;;;4968863;28;20043;-80
2023/01/20 10:59:15;;;;;;;24.75;17.10;;;6.10;1.00;;;;;;4975267;28;20050;-83
2023/01/20 11:01:48;;;;;;;23.80;16.63;;;6.10;1.00;;;;;;4973880;28;20101;-83
2023/01/20 11:04:20;;;;;;;24.13;17.00;;;6.20;1.00;;;;;;4958682;28;20502;-84
2023/01/20 11:06:52;;;;;;;27.92;19.55;;;6.30;1.00;;;;;;4974001;28;20138;-83
2023/01/20 11:09:26;;;;;;;26.58;18.65;;;6.50;1.00;;;;;;4972258;28;20038;-83
2023/01/20 11:11:57;;;;;;;26.60;19.08;;;6.50;1.00;;;;;;4972277;28;20051;-82
2023/01/20 11:14:25;;;;;;;26.73;17.98;;;6.60;1.00;;;;;;4957075;28;20054;-83
2023/01/20 11:16:58;;;;;;;21.92;15.80;;;6.40;1.00;;;;;;4957270;28;20565;-82
2023/01/20 11:19:27;;;;;;;27.45;18.40;;;6.20;1.00;;;;;;4957286;28;20507;-83
2023/01/20 11:21:55;;;;;;;26.25;16.67;;;6.10;1.00;;;;;;4966511;28;20047;-83
2023/01/20 11:24:38;;;;;;;26.17;17.70;;;6.00;1.00;;;;;;4959931;28;20495;-83
2023/01/20 11:27:14;;;;;;;30.92;19.48;;;5.90;1.00;;;;;;4958336;28;20078;-83
2023/01/20 11:29:48;;;;;;;32.72;21.67;;;5.60;19.40;;;;;;4973046;28;20055;-83
2023/01/20 11:32:28;;;;;;;27.13;18.40;;;5.50;94.20;;;;;;4956746;28;20443;-83
2023/01/20 11:34:56;;;;;;;23.23;16.80;;;5.30;97.40;;;;;;4973395;28;20118;-84
2023/01/20 11:37:25;;;;;;;24.40;17.38;;;5.30;59.00;;;;;;4957216;28;20057;-83
2023/01/20 11:40:15;;;;;;;25.05;16.65;;;5.20;99.90;;;;;;4955672;28;20518;-81
2023/01/20 11:42:46;;;;;;;25.90;17.20;;;5.10;99.90;;;;;;4972439;28;20413;-84
2023/01/20 11:45:26;;;;;;;30.42;20.45;;;5.00;99.90;;;;;;4972271;28;20047;-83
2023/01/20 11:48:06;;;;;;;29.80;19.80;;;4.80;99.90;;;;;;4956719;28;20074;-83
2023/01/20 11:50:36;;;;;;;28.50;19.77;;;4.80;1.00;;;;;;4973403;28;20053;-83
2023/01/20 11:53:21;;;;;;;29.77;20.10;;;4.80;1.00;;;;;;4987528;28;20053;-83
2023/01/20 11:55:53;;;;;;;23.67;17.45;;;4.90;1.00;;;;;;4966759;28;20258;-83
2023/01/20 11:58:25;;;;;;;28.77;19.90;;;4.90;99.90;;;;;;4966817;28;20050;-83
2023/01/20 12:01:01;;;;;;;25.80;19.52;;;4.90;1.00;;;;;;4972044;28;20047;-83
2023/01/20 12:03:52;;;;;;;28.02;19.58;;;4.90;1.00;;;;;;4987289;28;20062;-82
2023/01/20 12:06:23;;;;;;;35.75;24.77;;;4.80;1.00;;;;;;4970206;28;20138;-83
2023/01/20 12:08:58;;;;;;;42.85;29.77;;;4.60;1.00;;;;;;4969032;28;20070;-83
2023/01/20 12:11:30;;;;;;;42.63;30.60;;;4.50;31.20;;;;;;4980101;28;20113;-82
2023/01/20 12:14:21;;;;;;;41.63;30.33;;;4.40;99.90;;;;;;4966276;28;20292;-82
2023/01/20 12:17:13;;;;;;;39.70;31.25;;;4.30;99.90;;;;;;4986183;28;20046;-82
2023/01/20 12:19:58;;;;;;;38.97;29.33;;;4.40;1.00;;;;;;4971073;28;20114;-82
2023/01/20 12:22:32;;;;;;;40.05;30.25;;;4.30;99.90;;;;;;4989652;28;20055;-83
2023/01/20 12:27:49;;;;;;;42.03;31.73;;;4.20;1.00;;;;;;4973795;28;20047;-82
2023/01/20 12:30:44;;;;;;;37.88;30.25;;;4.20;1.00;;;;;;4969565;29;20092;-82
2023/01/20 12:33:32;;;;;;;44.60;33.88;;;4.20;1.00;;;;;;4963445;28;20063;-82
2023/01/20 12:36:32;;;;;;;47.38;36.83;;;4.20;1.00;;;;;;4962660;28;20061;-82
2023/01/20 12:39:36;;;;;;;48.95;36.00;;;4.40;1.00;;;;;;4980789;28;20047;-82
2023/01/20 12:42:33;;;;;;;46.20;33.58;;;4.30;1.00;;;;;;4927499;28;20051;-81
2023/01/20 12:45:10;;;;;;;45.33;33.80;;;4.30;1.00;;;;;;4967698;28;20074;-82
2023/01/20 12:47:56;;;;;;;41.05;32.75;;;4.30;99.90;;;;;;4963672;28;20107;-82
2023/01/20 12:50:35;;;;;;;48.03;35.15;;;4.30;99.90;;;;;;4955174;28;20043;-81
2023/01/20 12:53:21;;;;;;;52.60;38.10;;;4.10;1.00;;;;;;4960943;28;20569;-80
2023/01/20 12:55:58;;;;;;;41.67;31.23;;;4.20;99.90;;;;;;4958387;28;20039;-81
2023/01/20 12:58:39;;;;;;;43.65;31.98;;;4.00;1.00;;;;;;4963429;29;20077;-81
2023/01/20 13:01:28;;;;;;;37.00;29.40;;;4.00;1.00;;;;;;4964313;29;20055;-82
2023/01/20 13:04:29;;;;;;;37.60;28.50;;;4.00;1.00;;;;;;4978459;28;20110;-81
2023/01/20 13:07:40;;;;;;;35.38;28.08;;;3.80;1.00;;;;;;4969120;28;20067;-82
2023/01/20 13:10:26;;;;;;;36.13;28.20;;;3.90;1.00;;;;;;4975297;28;20048;-80
2023/01/20 13:13:04;;;;;;;33.65;27.13;;;4.00;99.90;;;;;;4974182;28;20043;-82
2023/01/20 13:15:38;;;;;;;37.25;29.05;;;4.00;1.00;;;;;;4958182;28;20047;-80
2023/01/20 13:18:28;;;;;;;37.03;28.05;;;4.20;1.00;;;;;;4973886;28;20047;-82
2023/01/20 13:20:57;;;;;;;32.03;25.45;;;4.20;1.00;;;;;;4976483;28;20047;-82